Tiempo atmosférico en la estación meteorológica de Arenys De Mar, Barcelona (50 m.)



Fecha
DESCASC
Temp. máxima en grados centígrados (hora)
DESCASC
Temp. mínima en grados centígrados (hora)
DESCASC
Temp. media en grados centígrados
DESCASC
Racha de viento máxima en m/sg (hora)
DESCASC
Velocidad máxima media en intervalos de 10 minutos(hora)
DESCASC
Precipitaciones diarias en mm
DESCASC
Precipitaciones de 00:00 a 06:00 en mm
DESCASC
Precipitaciones de 06:00 a 12:00 en mm
DESCASC
Precipitaciones de 12:00 a 18:00 en mm
DESCASC
Precipitaciones de 18:00 a 24:00 en mm
DESCASC
23-06-2019 28.1 (12:40) 17.2 (05:50) 22.7 8.06 (17:20) 3.89 (17:10) 0 0 0 0 0
22-06-2019 28.2 (13:10) 17.7 (06:10) 23 9.44 (15:20) 4.44 (15:30) 0 0 0 0 0
21-06-2019 29.8 (11:20) 18 (06:40) 23.9 5.28 (11:50) 2.5 (00:40) 0 0 0 0 0
20-06-2019 27.6 (13:10) 18.1 (00:00) 22.9 8.33 (13:30) 2.22 (13:10) 0 0 0 0 0
19-06-2019 26.2 (11:20) 15.9 (00:00) 21.1 8.33 (15:40) 3.89 (14:10) 0 0 0 0 0
18-06-2019 28.8 (09:30) 15.5 (00:00) 22.1 9.72 (13:20) 4.17 (14:30) 0 0 0 0 0
17-06-2019 27.8 (12:10) 15.9 (00:00) 21.8 6.11 (16:20) 3.06 (15:30) 0 0 0 0 0
16-06-2019 25.1 (15:20) 14.9 (00:00) 20 6.67 (18:10) 3.06 (18:30) 0 0 0 0 0
15-06-2019 24.8 (12:00) 15.3 (00:00) 20 5.28 (13:20) 2.5 (02:30) 0 0 0 0 0
14-06-2019 28 (14:40) 16.4 (00:00) 22.2 14.17 (08:10) 5.83 (07:50) 0 0 0 0 0
13-06-2019 23.2 (15:00) 12.2 (00:00) 17.7 5.56 (14:50) 2.5 (15:10) 0 0 0 0 0
12-06-2019 21 (15:20) 10.1 (00:00) 15.6 8.61 (13:20) 4.72 (15:30) 0.1 0.1 0 0 0
11-06-2019 18.6 (02:40) 10.6 (00:00) 14.6 4.17 (15:40) 2.22 (19:30) 22.3 0.6 10 8 3.7
10-06-2019 28.4 (12:30) 16.4 (00:00) 22.4 7.22 (11:50) 3.89 (11:00) 0 0 0 0 0
09-06-2019 30.5 (12:40) 18.5 (00:00) 24.5 7.5 (16:50) 2.78 (04:30) 0 0 0 0 0
08-06-2019 25.6 (15:20) 13.9 (00:00) 19.8 8.33 (14:20) 2.78 (00:30) 0 0 0 0 0
07-06-2019 25.3 (14:00) 15.7 (00:00) 20.5 9.44 (17:00) 4.17 (13:10) 0 0 0 0 0
06-06-2019 22.9 (13:20) 14.8 (00:00) 18.8 6.67 (12:00) 3.61 (13:30) 0 0 0 0 0
05-06-2019 27.4 (17:00) 14.9 (00:00) 21.1 11.39 (17:10) 4.17 (17:10) 0 0 0 0 0
04-06-2019 26.3 (14:50) 15.9 (00:00) 21.1 8.61 (16:40) 3.61 (16:40) 0 0 0 0 0
03-06-2019 26.7 (14:40) 15.3 (00:00) 21 9.44 (13:30) 4.44 (15:50) 0 0 0 0 0
02-06-2019 25 (15:20) 14.8 (00:00) 19.9 11.11 (16:10) 4.72 (16:00) 0 0 0 0 0
01-06-2019 25.6 (14:50) 14.3 (00:00) 20 7.78 (16:20) 3.33 (15:40) 0 0 0 0 0
31-05-2019 26.3 (13:00) 14.3 (00:00) 20.3 6.67 (14:40) 3.33 (14:30) 0 0 0 0 0
30-05-2019 22.5 (14:30) 11.3 (00:00) 16.9 6.67 (15:50) 2.5 (15:30) 0 0 0 0 0
29-05-2019 22.8 (13:30) 13.1 (00:00) 17.9 6.67 (12:20) 3.61 (14:00) 0 0 0 0 0
28-05-2019 22.1 (13:40) 14.4 (00:00) 18.3 5 (16:00) 2.22 (15:30) 0 0 0 0 0
27-05-2019 24.6 (11:50) 13.3 (00:00) 19 5.83 (17:10) 2.78 (00:50) 0 0 0 0 0
26-05-2019 25.5 (16:30) 14.3 (00:00) 19.9 8.06 (16:10) 3.61 (16:10) 0.9 0 0 0.9 0

Gráficas

Temp. máximas Temp. mínimas Temp. medias Precipitaciones Rachas de viento máximas Velocidades máximas media en intervalos de 10 minutos

Datos horarios

Fecha y hora oficial Temperatura (ºC) Velocidad del viento (km/h) Dirección del viento Racha (km/h) Dirección de racha Precipitación (mm) Presión (hPa) Tendencia (hPa) Humedad (%)
2019-06-24 23:00:00 21.9 0 Calma 12 Nordeste 0 -- -- 70
2019-06-24 22:00:00 21.9 0 Calma 13 Nordeste 0 -- -- 73
2019-06-24 21:00:00 22.5 0 Calma 17 Sur 0 -- -- 72
2019-06-24 20:00:00 25.3 4 Este 20 Este 0 -- -- 51
2019-06-24 19:00:00 25.4 6 Sudeste 21 Sudeste 0 -- -- 50
2019-06-24 18:00:00 27 4 Sudeste 27 Este 0 -- -- 39
2019-06-24 17:00:00 28.5 6 Sudeste 25 Este 0 -- -- 29
2019-06-24 16:00:00 31.1 5 Sudeste 20 Nordeste 0 -- -- 25
2019-06-24 15:00:00 30.7 5 Sudeste 19 Sudeste 0 -- -- 29
2019-06-24 14:00:00 28.8 8 Sudeste 22 Sudeste 0 -- -- 34
2019-06-24 13:00:00 27.1 6 Sudeste 22 Sudeste 0 -- -- 35
2019-06-24 12:00:00 27.7 5 Sudeste 19 Este 0 -- -- 39
2019-06-24 11:00:00 27.1 4 Sudeste 17 Sudeste 0 -- -- 38
2019-06-24 10:00:00 25.4 5 Sudeste 15 Sudeste 0 -- -- 49
2019-06-24 09:00:00 24.8 3 Sur 7 Sur 0 -- -- 47
2019-06-24 08:00:00 22.2 3 Norte 12 Norte 0 -- -- 47
2019-06-24 07:00:00 19.5 3 Norte 14 Norte 0 -- -- 54
2019-06-24 06:00:00 19 6 Norte 10 Norte 0 -- -- 56
2019-06-24 05:00:00 19.3 5 Norte 16 Norte 0 -- -- 58
2019-06-24 04:00:00 19.5 9 Norte 17 Norte 0 -- -- 61
2019-06-24 03:00:00 18.6 5 Norte 9 Norte 0 -- -- 66
2019-06-24 02:00:00 18.8 5 Norte 10 Norte 0 -- -- 70
2019-06-24 01:00:00 19.1 5 Norte 10 Norte 0 -- -- 71
2019-06-24 00:00:00 19.4 4 Norte 8 Norte 0 -- -- 70
2019-06-23 23:00:00 19.7 4 Norte 7 Noroeste 0 -- -- 69
2019-06-23 22:00:00 20.5 0 Calma 5 Sudoeste 0 -- -- 70
2019-06-23 21:00:00 21.9 3 Sudoeste 14 Sudoeste 0 -- -- 72
2019-06-23 20:00:00 23.4 7 Sudoeste 22 Sudoeste 0 -- -- 61
2019-06-23 19:00:00 25.3 8 Sur 21 Sudoeste 0 -- -- 54
2019-06-23 18:00:00 25.7 11 Sudoeste 29 Sudoeste 0 -- -- 50
2019-06-23 17:00:00 25.7 13 Sudoeste 29 Sudoeste 0 -- -- 51
2019-06-23 16:00:00 26.4 12 Sudoeste 25 Sur 0 -- -- 49
2019-06-23 15:00:00 27.3 10 Sur 28 Sur 0 -- -- 48
2019-06-23 14:00:00 26.5 12 Sur 27 Sudoeste 0 -- -- 51
2019-06-23 13:00:00 25.9 11 Sur 24 Sudoeste 0 -- -- 50
2019-06-23 12:00:00 27.2 9 Sur 22 Sur 0 -- -- 50
2019-06-23 11:00:00 26.6 10 Sudoeste 23 Sudoeste 0 -- -- 52
2019-06-23 10:00:00 24.5 9 Sur 18 Sur 0 -- -- 59
2019-06-23 09:00:00 23 6 Sudoeste 15 Sudoeste 0 -- -- 59
2019-06-23 08:00:00 19.8 4 Sur 10 Sudoeste 0 -- -- 80
2019-06-23 07:00:00 18.5 0 Calma 11 Sudoeste 0 -- -- 85
2019-06-23 06:00:00 17.3 0 Calma 3 Norte 0 -- -- 89
2019-06-23 05:00:00 17.5 0 Calma 4 Norte 0 -- -- 89
2019-06-23 04:00:00 17.4 0 Calma 6 Norte 0 -- -- 88
2019-06-23 03:00:00 17.5 0 Calma 8 Norte 0 -- -- 87
2019-06-23 02:00:00 17.7 3 Norte 6 Norte 0 -- -- 88
2019-06-23 01:00:00 18.6 0 Calma 5 Norte 0 -- -- 88
2019-06-23 00:00:00 19.1 0 Calma 5 Noroeste 0 -- -- 87
2019-06-22 23:00:00 19.7 0 Calma 13 Sudoeste 0 -- -- 86
2019-06-22 22:00:00 20.5 4 Sur 15 Sudoeste 0 -- -- 81
2019-06-22 21:00:00 21.2 7 Sudoeste 18 Sur 0 -- -- 75
2019-06-22 20:00:00 21.8 8 Sudoeste 17 Oeste 0 -- -- 72
2019-06-22 19:00:00 23.4 6 Sur 19 Sur 0 -- -- 60
2019-06-22 18:00:00 24.4 6 Sudeste 17 Sudeste 0 -- -- 55
2019-06-22 17:00:00 24.2 7 Sur 19 Sudeste 0 -- -- 53
2019-06-22 16:00:00 24.9 9 Sudeste 34 Sudoeste 0 -- -- 49
2019-06-22 15:00:00 26 13 Sudoeste 29 Sudoeste 0 -- -- 41
2019-06-22 14:00:00 26 12 Sudoeste 28 Sur 0 -- -- 40
2019-06-22 13:00:00 27.7 12 Sudoeste 27 Sur 0 -- -- 38
2019-06-22 12:00:00 26.7 13 Sudoeste 27 Sudoeste 0 -- -- 42
2019-06-22 11:00:00 27.6 7 Sur 20 Sur 0 -- -- 40
2019-06-22 10:00:00 23.4 9 Sur 19 Sudoeste 0 -- -- 51
2019-06-22 09:00:00 24 5 Sur 12 Sur 0 -- -- 53
2019-06-22 08:00:00 20.8 4 Sur 7 Sur 0 -- -- 67
2019-06-22 07:00:00 18.1 0 Calma 7 Norte 0 -- -- 85
2019-06-22 06:00:00 18 0 Calma 4 Norte 0 -- -- 87
2019-06-22 05:00:00 19.2 0 Calma 8 Noroeste 0 -- -- 83
2019-06-22 04:00:00 20 0 Calma 10 Norte 0 -- -- 79
2019-06-22 03:00:00 20.7 7 Norte 14 Norte 0 -- -- 67
2019-06-22 02:00:00 19.8 6 Norte 10 Norte 0 -- -- 72
2019-06-22 01:00:00 19.2 3 Norte 7 Norte 0 -- -- 78
2019-06-22 00:00:00 19.2 3 Norte 7 Norte 0 -- -- 78
2019-06-21 23:00:00 19.8 2 Noroeste 6 Noroeste 0 -- -- 74
2019-06-21 22:00:00 20.5 3 Sur 5 Sur 0 -- -- 72
2019-06-21 21:00:00 21.2 3 Sur 10 Sudeste 0 -- -- 66
2019-06-21 20:00:00 21.9 2 Sudeste 15 Sudeste 0 -- -- 60
2019-06-21 19:00:00 23 4 Sudeste 15 Este 0 -- -- 52
2019-06-21 18:00:00 24 5 Sur 17 Sudeste 0 -- -- 52
2019-06-21 17:00:00 24.2 5 Sur 16 Sur 0 -- -- 50
2019-06-21 16:00:00 26.4 6 Sur 18 Sur 0 -- -- 47
2019-06-21 15:00:00 25.2 8 Sur 19 Sur 0 -- -- 48
2019-06-21 14:00:00 25.3 5 Sur 19 Sudeste 0 -- -- 48
2019-06-21 13:00:00 26.1 6 Sur 18 Sudoeste 0 -- -- 46
2019-06-21 12:00:00 26.7 8 Sur 19 Sudoeste 0 -- -- 42
2019-06-21 11:00:00 28.2 3 Sudeste 14 Sur 0 -- -- 34
2019-06-21 10:00:00 26.3 4 Sudeste 18 Norte 0 -- -- 41
2019-06-21 09:00:00 25.6 3 Nordeste 11 Norte 0 -- -- 44
2019-06-21 08:00:00 20.4 3 Norte 13 Norte 0 -- -- 71
2019-06-21 07:00:00 18.2 5 Norte 10 Norte 0 -- -- 87
2019-06-21 06:00:00 18.5 0 Calma 4 Noroeste 0 -- -- 86
2019-06-21 05:00:00 19.5 0 Calma 6 Norte 0 -- -- 84
2019-06-21 04:00:00 19 0 Calma 5 Sudeste 0 -- -- 87
2019-06-21 03:00:00 18.8 0 Calma 7 Oeste 0 -- -- 87
2019-06-21 02:00:00 19.3 5 Sudoeste 15 Sudoeste 0 -- -- 86
2019-06-21 01:00:00 19.7 7 Sudoeste 18 Sudoeste 0 -- -- 79
2019-06-21 00:00:00 19.8 5 Sudoeste 12 Norte 0 -- -- 73
2019-06-20 23:00:00 18.8 3 Norte 5 Norte 0 -- -- 82
2019-06-20 22:00:00 19.6 2 Norte 7 Nordeste 0 -- -- 79
2019-06-20 21:00:00 20.2 0 Calma 10 Sudeste 0 -- -- 76
2019-06-20 20:00:00 21.4 2 Sudeste 14 Sudeste 0 -- -- 69
2019-06-20 19:00:00 22.2 4 Sudeste 15 Sudeste 0 -- -- 64
2019-06-20 18:00:00 22.1 4 Sudeste 16 Sudeste 0 -- -- 63
2019-06-20 17:00:00 24.7 4 Sudeste 19 Este 0 -- -- 50
2019-06-20 16:00:00 25.2 6 Sudeste 22 Sudeste 0 -- -- 50
2019-06-20 15:00:00 25.5 6 Sudeste 26 Sudeste 0 -- -- 49
2019-06-20 14:00:00 24.6 5 Sudeste -- -- -- -- -- 52
2019-06-20 13:00:00 27.2 4 Sudeste 23 Este 0 -- -- 47
2019-06-20 12:00:00 24.6 2 Sudeste 13 Sudeste 0 -- -- 52
2019-06-20 11:00:00 24.5 3 Sudeste 17 Nordeste 0 -- -- 58
2019-06-20 10:00:00 20.7 0 Calma 10 Este 0 -- -- 79
2019-06-20 09:00:00 21 4 Sudeste 10 Sudeste 0 -- -- 71
2019-06-20 08:00:00 19.7 3 Sudeste 10 Sur 0 -- -- 83
2019-06-20 07:00:00 18.8 2 Sur 10 Norte 0 -- -- 83
2019-06-20 06:00:00 18.4 6 Norte 13 Norte 0 -- -- 84
2019-06-20 05:00:00 18.1 4 Norte 8 Noroeste 0 -- -- 88
2019-06-20 04:00:00 18.2 2 Norte 5 Norte 0 -- -- 88
2019-06-20 03:00:00 18.4 2 Norte 5 Noroeste 0 -- -- 88
2019-06-20 02:00:00 18.4 3 Norte 5 Norte 0 -- -- 88
2019-06-20 01:00:00 18.4 3 Norte 6 Norte 0 -- -- 87
2019-06-20 00:00:00 18.6 2 Norte 6 Noroeste 0 -- -- 87
2019-06-19 23:00:00 19 0 Calma 5 Norte 0 -- -- 86
2019-06-19 22:00:00 19.7 0 Calma 10 Sur 0 -- -- 84
2019-06-19 21:00:00 20.8 4 Sur 13 Sur 0 -- -- 80
2019-06-19 20:00:00 21.5 6 Sur 18 Sur 0 -- -- 77
2019-06-19 19:00:00 22.4 8 Sur 19 Sudeste 0 -- -- 72
2019-06-19 18:00:00 23.6 9 Sur 23 Sudoeste 0 -- -- 67
2019-06-19 17:00:00 24.2 9 Sudoeste 22 Sur 0 -- -- 65
2019-06-19 16:00:00 24.5 11 Sur 30 Sudoeste 0 -- -- 64
2019-06-19 15:00:00 23.8 13 Sur 28 Sur 0 -- -- 66
2019-06-19 14:00:00 24.2 14 Sur 27 Sur 0 -- -- 60
2019-06-19 13:00:00 24.5 12 Sur 22 Sur 0 -- -- 55
2019-06-19 12:00:00 24.1 10 Sur 25 Sur 0 -- -- 49
2019-06-19 11:00:00 24.8 8 Sudoeste 23 Sur 0 -- -- 49
2019-06-19 10:00:00 24.4 7 Sudoeste 18 Sur 0 -- -- 44
2019-06-19 09:00:00 23 6 Sur 14 Sudoeste 0 -- -- 41
2019-06-19 08:00:00 18.8 0 Calma 5 Sudoeste 0 -- -- 59
2019-06-19 07:00:00 17.3 2 Sudoeste 5 Sudoeste 0 -- -- 65
2019-06-19 06:00:00 16.7 0 Calma 9 Oeste 0 -- -- 66
2019-06-19 05:00:00 17.9 0 Calma 9 Norte 0 -- -- 60
2019-06-19 04:00:00 16.3 0 Calma 4 Sudoeste 0 -- -- 69
2019-06-19 03:00:00 16 0 Calma 5 Norte 0 -- -- 76
2019-06-19 02:00:00 16.3 0 Calma 5 Noroeste 0 -- -- 79
2019-06-19 01:00:00 16.7 0 Calma 4 Norte 0 -- -- 83
2019-06-19 00:00:00 17.2 3 Norte 6 Norte 0 -- -- 76
2019-06-18 23:00:00 18 0 Calma 5 Noroeste 0 -- -- 78
2019-06-18 22:00:00 19.4 0 Calma 11 Sudoeste 0 -- -- 77
2019-06-18 21:00:00 20.8 0 Calma 10 Sur 0 -- -- 69
2019-06-18 20:00:00 22.2 6 Sur 20 Sudoeste 0 -- -- 63
2019-06-18 19:00:00 22.3 10 Sudoeste 21 Sudoeste 0 -- -- 62
2019-06-18 18:00:00 25.7 8 Sudoeste 30 Sudoeste 0 -- -- 50
2019-06-18 17:00:00 25.3 11 Sur 28 Sudoeste 0 -- -- 43
2019-06-18 16:00:00 25.3 9 Sudoeste 33 Sudoeste 0 -- -- 40
2019-06-18 15:00:00 25.4 14 Sudoeste 30 Sur 0 -- -- 41
2019-06-18 14:00:00 25.5 10 Sudoeste 35 Sur 0 -- -- 37
2019-06-18 13:00:00 24.9 12 Sudoeste 30 Sur 0 -- -- 33
2019-06-18 12:00:00 25.8 13 Sudoeste 28 Sudoeste 0 -- -- 36
2019-06-18 11:00:00 27 10 Sudoeste 19 Sudoeste 0 -- -- 31
2019-06-18 10:00:00 27.6 6 Sudoeste 26 Sudoeste 0 -- -- 26
2019-06-18 09:00:00 26.5 5 Sur 14 Sur 0 -- -- 27
2019-06-18 08:00:00 21.8 3 Sudoeste 11 Sudoeste 0 -- -- 40
2019-06-18 07:00:00 18.3 5 Norte 10 Norte 0 -- -- 46
2019-06-18 06:00:00 18 3 Noroeste 9 Norte 0 -- -- 50
2019-06-18 05:00:00 15.7 3 Nordeste 6 Noroeste 0 -- -- 63
2019-06-18 04:00:00 16.1 0 Calma 6 Nordeste 0 -- -- 61
2019-06-18 03:00:00 16.1 3 Norte 5 Norte 0 -- -- 67
2019-06-18 02:00:00 16.2 0 Calma 5 Norte 0 -- -- 73
2019-06-18 01:00:00 16.5 0 Calma 4 Noroeste 0 -- -- 80
2019-06-18 00:00:00 16.8 0 Calma 6 Norte 0 -- -- 83
2019-06-17 23:00:00 18.1 0 Calma 4 Norte 0 -- -- 87
2019-06-17 22:00:00 19 0 Calma 14 Sur 0 -- -- 85
2019-06-17 21:00:00 20.2 6 Sudoeste 19 Sudoeste 0 -- -- 80
2019-06-17 20:00:00 21.4 7 Sudoeste 19 Sudoeste 0 -- -- 70
2019-06-17 19:00:00 22.9 7 Sudoeste 18 Sudoeste 0 -- -- 60
2019-06-17 18:00:00 23.4 8 Sur 22 Sur 0 -- -- 62
2019-06-17 17:00:00 24 10 Sur 22 Sur 0 -- -- 53
2019-06-17 16:00:00 25.7 10 Sur 21 Sudoeste 0 -- -- 42
2019-06-17 15:00:00 25.6 7 Sur 16 Sur 0 -- -- 34
2019-06-17 14:00:00 26 5 Sur 14 Sudeste 0 -- -- 36
2019-06-17 13:00:00 26.8 5 Sudeste 14 Sudeste 0 -- -- 35
2019-06-17 12:00:00 27.4 4 Sudeste 12 Sudeste 0 -- -- 36
2019-06-17 11:00:00 25.3 5 Sur 10 Sudoeste 0 -- -- 43
2019-06-17 10:00:00 24.2 5 Sudeste 9 Sudeste 0 -- -- 43
2019-06-17 09:00:00 23 0 Calma 9 Sur 0 -- -- 48
2019-06-17 08:00:00 19.6 2 Este 8 Norte 0 -- -- 56
2019-06-17 07:00:00 17.4 5 Sudoeste 11 Sur 0 -- -- 61
2019-06-17 06:00:00 16.4 4 Norte 12 Norte 0 -- -- 64
2019-06-17 05:00:00 17.2 4 Norte 10 Norte 0 -- -- 59
2019-06-17 04:00:00 16.3 0 Calma 6 Norte 0 -- -- 64
2019-06-17 03:00:00 17.9 5 Sur 12 Sur 0 -- -- 57
2019-06-17 02:00:00 17.2 0 Calma 11 Norte 0 -- -- 64
2019-06-17 01:00:00 18.6 5 Norte 11 Norte 0 -- -- 63
2019-06-17 00:00:00 17 2 Norte 9 Norte 0 -- -- 79
2019-06-16 23:00:00 18 0 Calma 5 Noroeste 0 -- -- 78
2019-06-16 22:00:00 18.7 4 Noroeste 11 Oeste 0 -- -- 74
2019-06-16 21:00:00 19.6 4 Sudoeste 15 Sudoeste 0 -- -- 70
2019-06-16 20:00:00 20.4 5 Sur 18 Sudoeste 0 -- -- 61
2019-06-16 19:00:00 22.2 7 Sudoeste 24 Sur 0 -- -- 53
2019-06-16 18:00:00 21.6 10 Sur 22 Sudoeste 0 -- -- 57
2019-06-16 17:00:00 23.6 8 Sur 20 Sur 0 -- -- 52
2019-06-16 16:00:00 23.2 8 Sur 21 Sudoeste 0 -- -- 49
2019-06-16 15:00:00 23 9 Sur 19 Sudoeste 0 -- -- 48
2019-06-16 14:00:00 23.4 9 Sur 20 Sur 0 -- -- 47
2019-06-16 13:00:00 23.1 7 Sur 20 Sudoeste 0 -- -- 42
2019-06-16 12:00:00 24.1 5 Sudeste 16 Sudeste 0 -- -- 43
2019-06-16 11:00:00 23.2 6 Sudeste 14 Sur 0 -- -- 45
2019-06-16 10:00:00 22.4 4 Sudeste 11 Sudeste 0 -- -- 46
2019-06-16 09:00:00 21.9 3 Sudeste 6 Sudeste 0 -- -- 53
2019-06-16 08:00:00 18 4 Norte 10 Norte 0 -- -- 73
2019-06-16 07:00:00 15.6 5 Norte 8 Norte 0 -- -- 86
2019-06-16 06:00:00 15.4 4 Norte 6 Norte 0 -- -- 87
2019-06-16 05:00:00 15.6 0 Calma 6 Norte 0 -- -- 82
2019-06-16 04:00:00 15.7 3 Norte 6 Norte 0 -- -- 79
2019-06-16 03:00:00 16.3 3 Norte 11 Norte 0 -- -- 76
2019-06-16 02:00:00 16.4 5 Norte 9 Noroeste 0 -- -- 79
2019-06-16 01:00:00 16.3 4 Norte 7 Norte 0 -- -- 81
2019-06-16 00:00:00 16.7 0 Calma 6 Norte 0 -- -- 80
2019-06-15 23:00:00 18.1 0 Calma 6 Sudoeste 0 -- -- 75
2019-06-15 22:00:00 18.9 0 Calma 5 Norte 0 -- -- 70
2019-06-15 21:00:00 18.9 2 Sur 8 Sudeste 0 -- -- 68
2019-06-15 20:00:00 19.9 3 Sudeste 10 Sudeste 0 -- -- 61
2019-06-15 19:00:00 20.2 4 Sudeste 15 Sudeste 0 -- -- 59
2019-06-15 18:00:00 20.9 5 Sudeste 13 Sur 0 -- -- 56
2019-06-15 17:00:00 22.5 5 Sur 17 Sudeste 0 -- -- 53
2019-06-15 16:00:00 23.5 5 Sudeste 19 Sudeste 0 -- -- 52
2019-06-15 15:00:00 23.8 5 Sudeste 18 Sudeste 0 -- -- 54
2019-06-15 14:00:00 23.2 6 Sudeste 19 Este 0 -- -- 56
2019-06-15 13:00:00 23.6 6 Sudeste 17 Sudeste 0 -- -- 57
2019-06-15 12:00:00 23.2 4 Sudeste 17 Sudeste 0 -- -- 56
2019-06-15 11:00:00 24.2 4 Sudeste 17 Sudoeste 0 -- -- 50
2019-06-15 10:00:00 23.1 6 Sudoeste 14 Sudoeste 0 -- -- 53
2019-06-15 09:00:00 21.7 4 Sur 10 Sudeste 0 -- -- 59
2019-06-15 08:00:00 18.6 0 Calma 8 Nordeste 0 -- -- 77
2019-06-15 07:00:00 16.8 4 Norte 11 Norte 0 -- -- 85
2019-06-15 06:00:00 15.9 5 Norte 12 Norte 0 -- -- 87
2019-06-15 05:00:00 15.4 4 Norte 8 Norte 0 -- -- 87
2019-06-15 04:00:00 16.1 0 Calma 6 Sudoeste 0 -- -- 83
2019-06-15 03:00:00 17.8 2 Sur 16 Norte 0 -- -- 69
2019-06-15 02:00:00 17.1 5 Norte 11 Norte 0 -- -- 76
2019-06-15 01:00:00 17.1 2 Norte 7 Norte 0 -- -- 82
2019-06-15 00:00:00 17.3 2 Norte 5 Norte 0 -- -- 82
2019-06-14 23:00:00 17.8 2 Norte 6 Norte 0 -- -- 79
2019-06-14 22:00:00 18.7 0 Calma 6 Sudoeste 0 -- -- 74
2019-06-14 21:00:00 20.2 4 Sudoeste 33 Sudoeste 0 -- -- 67
2019-06-14 20:00:00 20.8 13 Sudoeste 45 Sudoeste 0 -- -- 61
2019-06-14 19:00:00 21.9 18 Sudoeste 46 Sudoeste 0 -- -- 54
2019-06-14 18:00:00 22.6 18 Sudoeste 47 Sudoeste 0 -- -- 53
2019-06-14 17:00:00 23 15 Sudoeste 37 Sudoeste 0 -- -- 54
2019-06-14 16:00:00 23 13 Sur 34 Sudoeste 0 -- -- 48
2019-06-14 15:00:00 23.9 16 Sur 35 Sudoeste 0 -- -- 43
2019-06-14 14:00:00 24.3 2 Norte 25 Sudoeste 0 -- -- 39
2019-06-14 13:00:00 25.7 6 Oeste 33 Norte 0 -- -- 36
2019-06-14 12:00:00 25.4 8 Norte 38 Nordeste 0 -- -- 37
2019-06-14 11:00:00 22.1 9 Norte 44 Este 0 -- -- 43
2019-06-14 10:00:00 22 17 Norte 43 Norte 0 -- -- 44
2019-06-14 09:00:00 21 18 Norte 51 Norte 0 -- -- 43
2019-06-14 08:00:00 20.7 18 Norte 44 Norte 0 -- -- 40
2019-06-14 07:00:00 21.1 15 Norte 41 Nordeste 0 -- -- 36
2019-06-14 06:00:00 21.2 12 Norte 41 Nordeste 0 -- -- 35
2019-06-14 05:00:00 20.7 12 Norte 29 Norte 0 -- -- 33
2019-06-14 04:00:00 19.3 9 Norte 19 Norte 0 -- -- 33
2019-06-14 03:00:00 18.1 10 Norte 19 Nordeste 0 -- -- 34
2019-06-14 02:00:00 17.8 10 Norte 17 Norte 0 -- -- 36
2019-06-14 01:00:00 16.9 6 Norte 21 Norte 0 -- -- 35
2019-06-14 00:00:00 16.5 3 Norte 11 Norte 0 -- -- 35
2019-06-13 23:00:00 16.5 5 Norte 12 Norte 0 -- -- 36
2019-06-13 22:00:00 17.4 3 Norte 8 Norte 0 -- -- 37
2019-06-13 21:00:00 18.5 2 Este 13 Este 0 -- -- 34
2019-06-13 20:00:00 19.6 0 Calma 15 Este 0 -- -- 41
2019-06-13 19:00:00 20 5 Sudeste 15 Sudeste 0 -- -- 46
2019-06-13 18:00:00 20.9 3 Este 15 Sudeste 0 -- -- 45
2019-06-13 17:00:00 21.8 5 Sudeste 16 Sudeste 0 -- -- 35
2019-06-13 16:00:00 20.8 5 Sudeste 20 Sudeste 0 -- -- 45
2019-06-13 15:00:00 20.9 5 Sudeste 20 Sudeste 0 -- -- 46
2019-06-13 14:00:00 21 6 Sudeste 17 Sudeste 0 -- -- 48
2019-06-13 13:00:00 21 6 Sudeste 14 Sur 0 -- -- 45
2019-06-13 12:00:00 20.5 6 Sudeste 14 Sudeste 0 -- -- 50
2019-06-13 11:00:00 21.3 5 Sudeste 11 Sur 0 -- -- 50
2019-06-13 10:00:00 20.6 4 Sur 11 Sudeste 0 -- -- 53
2019-06-13 09:00:00 20.2 3 Sudeste 7 Sudeste 0 -- -- 49
2019-06-13 08:00:00 15.2 2 Norte 9 Norte 0 -- -- 78
2019-06-13 07:00:00 12.8 7 Norte 15 Norte 0 -- -- 88
2019-06-13 06:00:00 12.7 5 Norte 12 Norte 0 -- -- 88
2019-06-13 05:00:00 12.5 5 Norte 8 Norte 0 -- -- 89
2019-06-13 04:00:00 12.8 5 Nordeste 10 Norte 0 -- -- 88
2019-06-13 03:00:00 12.8 6 Norte 13 Norte 0 -- -- 88
2019-06-13 02:00:00 13 6 Norte 12 Norte 0 -- -- 88
2019-06-13 01:00:00 13.6 5 Norte 9 Norte 0 -- -- 87
2019-06-13 00:00:00 14.2 4 Norte 10 Norte 0 -- -- 84
2019-06-12 23:00:00 14.8 4 Noroeste 8 Noroeste 0 -- -- 80
2019-06-12 22:00:00 15.7 0 Calma 11 Sudoeste 0 -- -- 75
2019-06-12 21:00:00 17 6 Sudoeste 19 Sudoeste 0 -- -- 66
2019-06-12 20:00:00 17.7 6 Sudoeste 22 Sudoeste 0 -- -- 58
2019-06-12 19:00:00 19.9 6 Sudoeste 26 Sur 0 -- -- 49
2019-06-12 18:00:00 19.2 11 Sur 26 Sur 0 -- -- 50
2019-06-12 17:00:00 20.3 11 Sudoeste 28 Sudoeste 0 -- -- 46
2019-06-12 16:00:00 20.7 12 Sur 30 Sudoeste 0 -- -- 45
2019-06-12 15:00:00 19.9 14 Sur 29 Sur 0 -- -- 45
2019-06-12 14:00:00 19.3 17 Sudoeste 31 Sudoeste 0 -- -- 48
2019-06-12 13:00:00 19.2 15 Sur 28 Sudoeste 0 -- -- 45
2019-06-12 12:00:00 19 13 Sur 26 Sudoeste 0 -- -- 44
2019-06-12 11:00:00 19.5 11 Sudoeste 22 Sur 0 -- -- 43
2019-06-12 10:00:00 19 6 Noroeste 22 Noroeste 0 -- -- 46
2019-06-12 09:00:00 16.2 7 Noroeste 18 Noroeste 0 -- -- 47
2019-06-12 08:00:00 13.2 3 Noroeste 12 Oeste 0 -- -- 70
2019-06-12 07:00:00 11.2 0 Calma 8 Oeste 0 -- -- 89
2019-06-12 06:00:00 11.3 0 Calma 9 Sur 0 -- -- 89
2019-06-12 05:00:00 11.2 3 Noroeste 14 Noroeste 0 -- -- 88
2019-06-12 04:00:00 11.5 6 Noroeste 13 Oeste 0.1 -- -- 88
2019-06-12 03:00:00 11.8 8 Noroeste 16 Noroeste 0 -- -- 90
2019-06-12 02:00:00 10.3 4 Norte 8 Norte 0 -- -- 90
2019-06-12 01:00:00 10.4 5 Norte 11 Norte 0 -- -- 90
2019-06-12 00:00:00 10.7 3 Norte 7 Noroeste 0 -- -- 90
2019-06-11 23:00:00 11.9 3 Noroeste 6 Noroeste 0 -- -- 90
2019-06-11 22:00:00 12.8 0 Calma 7 Sudoeste 0.3 -- -- 90
2019-06-11 21:00:00 12.6 0 Calma 8 Norte 0.9 -- -- 90
2019-06-11 20:00:00 12.5 3 Norte 13 Noroeste 1.8 -- -- 89
2019-06-11 19:00:00 13 3 Noroeste 8 Noroeste 0.7 -- -- 88
2019-06-11 18:00:00 13.1 4 Norte 9 Norte 0.6 -- -- 88
2019-06-11 17:00:00 13.5 2 Norte 10 Norte 1.2 -- -- 88
2019-06-11 16:00:00 13.7 6 Norte 15 Norte 2.2 -- -- 89
2019-06-11 15:00:00 14.9 0 Calma 7 Oeste 2.9 -- -- 90
2019-06-11 14:00:00 14.9 0 Calma 5 Nordeste 0.8 -- -- 90
2019-06-11 13:00:00 14.9 4 Norte 7 Norte 0.3 -- -- 90
2019-06-11 12:00:00 15.1 0 Calma 13 Sur 5.2 -- -- 90
2019-06-11 11:00:00 15.8 0 Calma 6 Norte 1.1 -- -- 90
2019-06-11 10:00:00 15.4 2 Sudoeste 11 Sur 1 -- -- 90
2019-06-11 09:00:00 16.2 0 Calma 6 Sudoeste 1.1 -- -- 90
2019-06-11 08:00:00 16.1 0 Calma 8 Oeste 1.6 -- -- 88
2019-06-11 07:00:00 16.3 3 Norte 8 Norte 0 -- -- 89
2019-06-11 06:00:00 16.3 4 Noroeste 10 Oeste 0.1 -- -- 89
2019-06-11 05:00:00 16.3 5 Sur 12 Noroeste 0.4 -- -- 89
2019-06-11 04:00:00 17.6 4 Sur 14 Noroeste 0.1 -- -- 79
2019-06-11 03:00:00 18.1 0 Calma 10 Sudoeste 0 -- -- 73
2019-06-11 02:00:00 17.9 0 Calma 9 Norte 0 -- -- 69
2019-06-11 01:00:00 17 4 Norte 9 Norte 0 -- -- 70
2019-06-11 00:00:00 17.2 4 Norte 10 Norte 0 -- -- 72
2019-06-10 23:00:00 17.6 3 Norte 9 Norte 0 -- -- 72
2019-06-10 22:00:00 18.1 3 Norte 11 Este 0 -- -- 73
2019-06-10 21:00:00 18.7 0 Calma 13 Sudeste 0 -- -- 70
2019-06-10 20:00:00 20.4 5 Sudeste 18 Sudeste 0 -- -- 64
2019-06-10 19:00:00 22.4 6 Sudeste 20 Sudeste 0 -- -- 57
2019-06-10 18:00:00 23.6 7 Sudeste 16 Sudeste 0 -- -- 52
2019-06-10 17:00:00 24.9 7 Sudeste 17 Sudeste 0 -- -- 48
2019-06-10 16:00:00 23.9 8 Sudeste 18 Sur 0 -- -- 47
2019-06-10 15:00:00 24.7 8 Sudeste 21 Sur 0 -- -- 44
2019-06-10 14:00:00 26.1 7 Sur 19 Sudeste 0 -- -- 42
2019-06-10 13:00:00 27.5 8 Sur 23 Sudoeste 0 -- -- 32
2019-06-10 12:00:00 27.2 10 Sur 26 Sur 0 -- -- 31
2019-06-10 11:00:00 26.5 14 Sur 25 Sur 0 -- -- 32
2019-06-10 10:00:00 27.1 7 Sudoeste 15 Sudoeste 0 -- -- 29
2019-06-10 09:00:00 22.3 2 Norte 10 Nordeste 0 -- -- 45
2019-06-10 08:00:00 18.6 5 Norte 10 Norte 0 -- -- 70
2019-06-10 07:00:00 16.6 5 Norte 9 Noroeste 0 -- -- 78
2019-06-10 06:00:00 17.1 3 Nordeste 10 Norte 0 -- -- 74
2019-06-10 05:00:00 17.3 5 Norte 9 Norte 0 -- -- 76
2019-06-10 04:00:00 17.1 2 Norte 12 Noroeste 0 -- -- 80
2019-06-10 03:00:00 18.2 3 Oeste 14 Noroeste 0 -- -- 83
2019-06-10 02:00:00 18.4 3 Norte 12 Norte 0 -- -- 75
2019-06-10 01:00:00 19 3 Norte 13 Noroeste 0 -- -- 76
2019-06-10 00:00:00 19.6 6 Sudoeste 14 Sudoeste 0 -- -- 76
2019-06-09 23:00:00 18.9 6 Norte 11 Nordeste 0 -- -- 83
2019-06-09 22:00:00 18.6 2 Sudoeste 20 Oeste 0 -- -- 84
2019-06-09 21:00:00 19.7 0 Calma 20 Sudoeste 0 -- -- 78
2019-06-09 20:00:00 19.3 4 Sur 19 Sur 0 -- -- 78
2019-06-09 19:00:00 20.4 3 Sudoeste 15 Sudoeste 0 -- -- 72
2019-06-09 18:00:00 21 3 Sudeste 19 Este 0 -- -- 65
2019-06-09 17:00:00 21.9 5 Sudeste 27 Sudeste 0 -- -- 65
2019-06-09 16:00:00 -- 5 Sudeste 22 Sudeste 0 -- -- --
2019-06-09 15:00:00 22.1 4 Este 21 Sudeste 0 -- -- 55
2019-06-09 14:00:00 23.5 3 Sudeste 24 Sudeste 0 -- -- 44
2019-06-09 13:00:00 28.6 4 Nordeste 21 Este 0 -- -- 17
2019-06-09 12:00:00 27 7 Norte 24 Norte 0 -- -- 17
2019-06-09 11:00:00 25.7 8 Norte 22 Norte 0 -- -- 21
2019-06-09 10:00:00 23 3 Nordeste 14 Nordeste 0 -- -- 24
2019-06-09 09:00:00 22 2 Sudeste 15 Este 0 -- -- 29
2019-06-09 08:00:00 21.9 0 Calma 16 Norte 0 -- -- 31
2019-06-09 07:00:00 21.2 8 Norte 16 Norte 0 -- -- 30
2019-06-09 06:00:00 21.2 8 Norte 17 Nordeste 0 -- -- 26
2019-06-09 05:00:00 19.4 8 Norte 17 Norte 0 -- -- 26
2019-06-09 04:00:00 19.6 8 Norte 15 Norte 0 -- -- 26
2019-06-09 03:00:00 19.3 9 Norte 14 Norte 0 -- -- 27
2019-06-09 02:00:00 19 5 Norte 10 Noroeste 0 -- -- 27
2019-06-09 01:00:00 20.2 4 Norte 14 Norte 0 -- -- 26
2019-06-09 00:00:00 19.5 4 Norte 11 Norte 0 -- -- 27
2019-06-08 23:00:00 19.4 5 Norte 10 Norte 0 -- -- 26
2019-06-08 22:00:00 20.2 3 Norte 4 Norte 0 -- -- 26
2019-06-08 21:00:00 20.2 0 Calma 10 Sudeste 0 -- -- 25
2019-06-08 20:00:00 22.4 3 Sudeste 13 Sur 0 -- -- 22
2019-06-08 19:00:00 23.4 4 Sudeste 17 Sudeste 0 -- -- 23
2019-06-08 18:00:00 24.4 5 Sudeste 18 Sudeste 0 -- -- 25
2019-06-08 17:00:00 24.7 4 Sudeste 24 Este 0 -- -- 26
2019-06-08 16:00:00 23.7 4 Sudeste 22 Este 0 -- -- 32
2019-06-08 15:00:00 23.7 6 Sudeste 30 Sur 0 -- -- 30
2019-06-08 14:00:00 24.1 5 Sudeste 23 Este 0 -- -- 35
2019-06-08 13:00:00 23.7 6 Sudeste 18 Sudeste 0 -- -- 38
2019-06-08 12:00:00 22.5 6 Sudeste 19 Sudeste 0 -- -- 37
2019-06-08 11:00:00 22.9 7 Sudeste 21 Sudeste 0 -- -- 36
2019-06-08 10:00:00 23 2 Sudoeste 16 Sur 0 -- -- 34
2019-06-08 09:00:00 23 2 Norte 18 Norte 0 -- -- 32
2019-06-08 08:00:00 19.1 6 Norte 18 Norte 0 -- -- 43
2019-06-08 07:00:00 16 4 Norte 11 Norte 0 -- -- 53
2019-06-08 06:00:00 14.3 5 Norte 12 Norte 0 -- -- 60
2019-06-08 05:00:00 14.1 2 Norte 5 Norte 0 -- -- 60
2019-06-08 04:00:00 14.9 0 Calma 9 Norte 0 -- -- 55
2019-06-08 03:00:00 16.8 5 Norte 12 Norte 0 -- -- 47
2019-06-08 02:00:00 18 8 Norte 18 Norte 0 -- -- 45
2019-06-08 01:00:00 17.5 8 Norte 19 Norte 0 -- -- 48
2019-06-08 00:00:00 18.6 9 Norte 24 Nordeste 0 -- -- 46
2019-06-07 23:00:00 18.8 4 Nordeste 17 Nordeste 0 -- -- 52
2019-06-07 22:00:00 17.5 0 Calma 9 Este 0 -- -- 74
2019-06-07 21:00:00 19.1 0 Calma 23 Sudeste 0 -- -- 62
2019-06-07 20:00:00 22.3 2 Sudeste 10 Sur 0 -- -- 64
2019-06-07 19:00:00 23.7 5 Sur 13 Sudeste 0 -- -- 57
2019-06-07 18:00:00 23.7 5 Sur 26 Sur 0 -- -- 60
2019-06-07 17:00:00 22.5 13 Sudoeste 34 Sur 0 -- -- 59
2019-06-07 16:00:00 23.1 10 Sudoeste 30 Sudoeste 0 -- -- 54
2019-06-07 15:00:00 23.7 13 Sudoeste 31 Sur 0 -- -- 53
2019-06-07 14:00:00 23.8 13 Sudoeste 32 Sur 0 -- -- 52
2019-06-07 13:00:00 22.1 14 Sur 30 Sur 0 -- -- 61
2019-06-07 12:00:00 21.7 12 Sur 24 Sur 0 -- -- 64
2019-06-07 11:00:00 23.2 6 Sur 19 Sudoeste 0 -- -- 56
2019-06-07 10:00:00 22.4 6 Sur 17 Sudeste 0 -- -- 64
2019-06-07 09:00:00 21.9 3 Sur 9 Sur 0 -- -- 69
2019-06-07 08:00:00 18.5 0 Calma 6 Nordeste 0 -- -- 84
2019-06-07 07:00:00 16.5 0 Calma 5 Norte 0 -- -- 88
2019-06-07 06:00:00 17.4 2 Norte 4 Noroeste 0 -- -- 84
2019-06-07 05:00:00 17.9 0 Calma 4 Norte 0 -- -- 83
2019-06-07 04:00:00 17.6 3 Norte 6 Norte 0 -- -- 80
2019-06-07 03:00:00 17.5 4 Norte 8 Norte 0 -- -- 81
2019-06-07 02:00:00 16.8 3 Norte 8 Norte 0 -- -- 83
2019-06-07 01:00:00 15.9 5 Norte 10 Nordeste 0 -- -- 85
2019-06-07 00:00:00 15.8 5 Norte 9 Nordeste 0 -- -- 87
2019-06-06 23:00:00 15.7 4 Norte 6 Norte 0 -- -- 87
2019-06-06 22:00:00 16.2 4 Norte 6 Norte 0 -- -- 83
2019-06-06 21:00:00 17.4 3 Sur 10 Sudoeste 0 -- -- 78
2019-06-06 20:00:00 18.3 5 Sur 14 Sur 0 -- -- 72
2019-06-06 19:00:00 19.2 6 Sur 16 Sudoeste 0 -- -- 66
2019-06-06 18:00:00 19.5 6 Sur 16 Sur 0 -- -- 63
2019-06-06 17:00:00 20.9 9 Sur 20 Sur 0 -- -- 59
2019-06-06 16:00:00 19.9 11 Sur 23 Sur 0 -- -- 60
2019-06-06 15:00:00 20.4 11 Sur 24 Sur 0 -- -- 59
2019-06-06 14:00:00 21.3 10 Sur 23 Sur 0 -- -- 54
2019-06-06 13:00:00 21.9 9 Sur 24 Sudoeste 0 -- -- 53
2019-06-06 12:00:00 20.8 10 Sur 24 Sur 0 -- -- 59
2019-06-06 11:00:00 20.5 9 Sudoeste 20 Sur 0 -- -- 58
2019-06-06 10:00:00 20.8 9 Sudoeste 21 Sur 0 -- -- 58
2019-06-06 09:00:00 17.8 8 Sur 18 Sur 0 -- -- 70
2019-06-06 08:00:00 17 3 Oeste 13 Oeste 0 -- -- 75
2019-06-06 07:00:00 15.5 5 Norte 10 Noroeste 0 -- -- 82
2019-06-06 06:00:00 15 6 Noroeste 11 Noroeste 0 -- -- 82
2019-06-06 05:00:00 15.2 4 Noroeste 11 Oeste 0 -- -- 82
2019-06-06 04:00:00 15.5 4 Noroeste 8 Noroeste 0 -- -- 81
2019-06-06 03:00:00 15.7 3 Noroeste 12 Oeste 0 -- -- 80
2019-06-06 02:00:00 15.5 2 Oeste 6 Oeste 0 -- -- 82
2019-06-06 01:00:00 16.2 3 Noroeste 7 Oeste 0 -- -- 77
2019-06-06 00:00:00 16.6 3 Oeste 10 Oeste 0 -- -- 75
2019-06-05 23:00:00 16.8 2 Oeste 7 Oeste 0 -- -- 74
2019-06-05 22:00:00 17.5 0 Calma 11 Este 0 -- -- 64
2019-06-05 21:00:00 18.4 2 Sudeste 22 Sudeste 0 -- -- 60
2019-06-05 20:00:00 20 3 Sudeste 21 Sudoeste 0 -- -- 55
2019-06-05 19:00:00 24.8 4 Oeste 31 Noroeste 0 -- -- 27
2019-06-05 18:00:00 26.6 10 Noroeste 41 Noroeste 0 -- -- 27
2019-06-05 17:00:00 27 13 Noroeste 34 Noroeste 0 -- -- 32
2019-06-05 16:00:00 22.5 12 Sudoeste 28 Sur 0 -- -- 64
2019-06-05 15:00:00 24 9 Sur 18 Sudeste 0 -- -- 59
2019-06-05 14:00:00 23.5 8 Sudeste 18 Sudeste 0 -- -- 57
2019-06-05 13:00:00 24.8 7 Sur 16 Sudeste 0 -- -- 54
2019-06-05 12:00:00 22.9 8 Sudeste 21 Sudeste 0 -- -- 54
2019-06-05 11:00:00 24 5 Sudeste 21 Sudeste 0 -- -- 54
2019-06-05 10:00:00 23.3 5 Sudeste 19 Sudeste 0 -- -- 54
2019-06-05 09:00:00 22.6 4 Sur 9 Sur 0 -- -- 55
2019-06-05 08:00:00 17.8 3 Sudeste 8 Nordeste 0 -- -- 75
2019-06-05 07:00:00 15.8 4 Norte 10 Norte 0 -- -- 83
2019-06-05 06:00:00 15.6 5 Norte 11 Norte 0 -- -- 79
2019-06-05 05:00:00 15.2 5 Norte 10 Noroeste 0 -- -- 73
2019-06-05 04:00:00 15.3 4 Norte 11 Norte 0 -- -- 69
2019-06-05 03:00:00 15.3 3 Norte 9 Norte 0 -- -- 67
2019-06-05 02:00:00 15.9 3 Norte 10 Norte 0 -- -- 65
2019-06-05 01:00:00 16.1 3 Norte 8 Norte 0 -- -- 71
2019-06-05 00:00:00 16.4 3 Norte 6 Norte 0 -- -- 75
2019-06-04 23:00:00 17.3 2 Norte 6 Norte 0 -- -- 74
2019-06-04 22:00:00 18.2 0 Calma 5 Norte 0 -- -- 77
2019-06-04 21:00:00 19.9 0 Calma 11 Sur 0 -- -- 70
2019-06-04 20:00:00 20.6 7 Sur 15 Sur 0 -- -- 71
2019-06-04 19:00:00 21.7 10 Sur 23 Sur 0 -- -- 63
2019-06-04 18:00:00 23.8 7 Sudoeste 24 Sur 0 -- -- 54
2019-06-04 17:00:00 23.2 10 Sur 31 Sur 0 -- -- 55
2019-06-04 16:00:00 25.1 8 Sudoeste 29 Sudoeste 0 -- -- 43
2019-06-04 15:00:00 24.6 9 Sudoeste 26 Sur 0 -- -- 44
2019-06-04 14:00:00 26 10 Sudoeste 26 Sudoeste 0 -- -- 42
2019-06-04 13:00:00 24.5 9 Sudoeste 26 Sur 0 -- -- 46
2019-06-04 12:00:00 23.3 10 Sur 24 Sudoeste 0 -- -- 56
2019-06-04 11:00:00 23.3 10 Sudoeste 22 Sur 0 -- -- 54
2019-06-04 10:00:00 23.4 9 Sudoeste 23 Sur 0 -- -- 46
2019-06-04 09:00:00 23 6 Sudoeste 16 Sudoeste 0 -- -- 40
2019-06-04 08:00:00 19.3 0 Calma 6 Sudoeste 0 -- -- 45
2019-06-04 07:00:00 16.3 2 Nordeste 5 Norte 0 -- -- 45
2019-06-04 06:00:00 16.4 3 Norte 8 Oeste 0 -- -- 43
2019-06-04 05:00:00 18.7 3 Oeste 13 Noroeste 0 -- -- 37
2019-06-04 04:00:00 18.9 0 Calma 18 Oeste 0 -- -- 38
2019-06-04 03:00:00 20.6 6 Noroeste 15 Noroeste 0 -- -- 36
2019-06-04 02:00:00 20.5 7 Noroeste 21 Noroeste 0 -- -- 38
2019-06-04 01:00:00 17 0 Calma 8 Oeste 0 -- -- 62
2019-06-04 00:00:00 16.7 0 Calma 11 Sudoeste 0 -- -- 83
2019-06-03 23:00:00 18.3 4 Sudoeste 12 Sudoeste 0 -- -- 85
2019-06-03 22:00:00 18.6 5 Sudoeste 15 Sur 0 -- -- 83
2019-06-03 21:00:00 19.4 6 Sur 18 Sudoeste 0 -- -- 73
2019-06-03 20:00:00 20.8 8 Sudoeste 26 Sudoeste 0 -- -- 56
2019-06-03 19:00:00 23 10 Sudoeste 26 Sudoeste 0 -- -- 48
2019-06-03 18:00:00 23.1 11 Sudoeste 26 Sur 0 -- -- 50
2019-06-03 17:00:00 23.5 13 Sudoeste 28 Sudoeste 0 -- -- 47
2019-06-03 16:00:00 24.7 13 Sudoeste 32 Sudoeste 0 -- -- 48
2019-06-03 15:00:00 24.6 11 Sudoeste 31 Sudoeste 0 -- -- 46
2019-06-03 14:00:00 25.3 12 Sudoeste 34 Sudoeste 0 -- -- 43
2019-06-03 13:00:00 25 12 Sudoeste 28 Sudoeste 0 -- -- 45
2019-06-03 12:00:00 24.6 12 Sudoeste 29 Sudoeste 0 -- -- 47
2019-06-03 11:00:00 24.4 8 Sudoeste 23 Sudoeste 0 -- -- 51
2019-06-03 10:00:00 23.8 8 Sudoeste 22 Sudoeste 0 -- -- 48
2019-06-03 09:00:00 23.6 4 Sur 15 Sur 0 -- -- 42
2019-06-03 08:00:00 19.6 6 Sur 12 Sur 0 -- -- 46
2019-06-03 07:00:00 16.5 0 Calma 5 Noroeste 0 -- -- 51
2019-06-03 06:00:00 15.7 3 Noroeste 6 Oeste 0 -- -- 52
2019-06-03 05:00:00 16.1 0 Calma 5 Noroeste 0 -- -- 51
2019-06-03 04:00:00 15.6 0 Calma 7 Sur 0 -- -- 51
2019-06-03 03:00:00 16.8 0 Calma 8 Sudoeste 0 -- -- 47
2019-06-03 02:00:00 17.7 0 Calma 8 Nordeste 0 -- -- 42
2019-06-03 01:00:00 17.9 0 Calma 8 Noroeste 0 -- -- 42
2019-06-03 00:00:00 17.6 0 Calma 9 Sudoeste 0 -- -- 43
2019-06-02 23:00:00 18.8 3 Sur 7 Sur 0 -- -- 44
2019-06-02 22:00:00 19.4 0 Calma 13 Sur 0 -- -- 47
2019-06-02 21:00:00 20.4 5 Sudoeste 16 Sudoeste 0 -- -- 49
2019-06-02 20:00:00 20.9 8 Sudoeste 27 Sudoeste 0 -- -- 50
2019-06-02 19:00:00 22.5 15 Sudoeste 31 Sudoeste 0 -- -- 41
2019-06-02 18:00:00 23.1 15 Sudoeste 37 Sudoeste 0 -- -- 41
2019-06-02 17:00:00 24.4 12 Sudoeste 40 Sur 0 -- -- 37
2019-06-02 16:00:00 23.3 17 Sudoeste 37 Sudoeste 0 -- -- 43
2019-06-02 15:00:00 24.4 15 Sudoeste 36 Sudoeste 0 -- -- 42
2019-06-02 14:00:00 23.7 15 Sudoeste 33 Sudoeste 0 -- -- 50
2019-06-02 13:00:00 23.2 12 Sudoeste 32 Sur 0 -- -- 55
2019-06-02 12:00:00 22.9 10 Sudoeste 28 Sudoeste 0 -- -- 59
2019-06-02 11:00:00 22.8 12 Sudoeste 26 Sudoeste 0 -- -- 56
2019-06-02 10:00:00 22.4 9 Sur 21 Sudoeste 0 -- -- 43
2019-06-02 09:00:00 22.3 8 Sudoeste 15 Sudoeste 0 -- -- 42
2019-06-02 08:00:00 18.7 3 Sudeste 7 Sudeste 0 -- -- 47
2019-06-02 07:00:00 16.4 0 Calma 12 Sudoeste 0 -- -- 47
2019-06-02 06:00:00 15.8 0 Calma 9 Sur 0 -- -- 47
2019-06-02 05:00:00 16.1 0 Calma 7 Sur 0 -- -- 46
2019-06-02 04:00:00 16.1 0 Calma 5 Norte 0 -- -- 49
2019-06-02 03:00:00 15.1 2 Norte 4 Nordeste 0 -- -- 57
2019-06-02 02:00:00 14.9 3 Norte 4 Norte 0 -- -- 66
2019-06-02 01:00:00 15.3 0 Calma 6 Oeste 0 -- -- 81
2019-06-02 00:00:00 15.8 3 Norte 6 Norte 0 -- -- 79
2019-06-01 23:00:00 16.6 0 Calma 7 Sudoeste 0 -- -- 76
2019-06-01 22:00:00 18.1 3 Sudoeste 12 Sur 0 -- -- 68
2019-06-01 21:00:00 18.8 3 Sudoeste 18 Sudoeste 0 -- -- 61
2019-06-01 20:00:00 20.3 8 Sudoeste 21 Sudoeste 0 -- -- 51
2019-06-01 19:00:00 22.6 6 Sudoeste 21 Sur 0 -- -- 46
2019-06-01 18:00:00 22.6 9 Sur 27 Sudoeste 0 -- -- 48
2019-06-01 17:00:00 23.8 12 Sur 28 Sur 0 -- -- 46
2019-06-01 16:00:00 23.2 9 Sur 27 Sur 0 -- -- 49
2019-06-01 15:00:00 24.3 10 Sur 23 Sudoeste 0 -- -- 48
2019-06-01 14:00:00 24 10 Sur 23 Sudeste 0 -- -- 49
2019-06-01 13:00:00 24.4 9 Sur 20 Sudoeste 0 -- -- 47
2019-06-01 12:00:00 23.3 8 Sur 17 Sur 0 -- -- 45
2019-06-01 11:00:00 23.8 4 Sudeste 13 Sudeste 0 -- -- 44
2019-06-01 10:00:00 23.2 4 Sudeste 11 Sudeste 0 -- -- 42
2019-06-01 09:00:00 21.5 3 Sudeste 8 Sur 0 -- -- 53
2019-06-01 08:00:00 17.7 0 Calma 10 Norte 0 -- -- 64
2019-06-01 07:00:00 15.2 2 Norte 9 Norte 0 -- -- 69
2019-06-01 06:00:00 14.6 3 Norte 7 Norte 0 -- -- 67
2019-06-01 05:00:00 15 0 Calma 5 Sudeste 0 -- -- 64
2019-06-01 04:00:00 16.2 4 Norte 6 Norte 0 -- -- 57
2019-06-01 03:00:00 16.9 0 Calma 12 Norte 0 -- -- 54
2019-06-01 02:00:00 20.5 5 Noroeste 22 Noroeste 0 -- -- 43
2019-06-01 01:00:00 18.7 3 Norte 21 Norte 0 -- -- 48
2019-06-01 00:00:00 16.7 0 Calma 6 Norte 0 -- -- 65
2019-05-31 23:00:00 16.9 0 Calma 4 Norte 0 -- -- 70
2019-05-31 22:00:00 17.5 0 Calma 8 Sudoeste 0 -- -- 70
2019-05-31 21:00:00 18.9 4 Sudoeste 13 Sudoeste 0 -- -- 65
2019-05-31 20:00:00 19.8 6 Sur 16 Sur 0 -- -- 60
2019-05-31 19:00:00 21.7 8 Sur 22 Sudoeste 0 -- -- 51
2019-05-31 18:00:00 22.3 9 Sur 19 Sur 0 -- -- 46
2019-05-31 17:00:00 23.9 9 Sur 22 Sudoeste 0 -- -- 33
2019-05-31 16:00:00 22.5 10 Sur 22 Sudoeste 0 -- -- 36
2019-05-31 15:00:00 24.3 10 Sur 24 Sur 0 -- -- 36
2019-05-31 14:00:00 24.4 10 Sur 23 Sudoeste 0 -- -- 29
2019-05-31 13:00:00 25.8 9 Sudoeste 20 Sudoeste 0 -- -- 30
2019-05-31 12:00:00 25.4 9 Sur 17 Sur 0 -- -- 31
2019-05-31 11:00:00 25.2 5 Sudeste 13 Este 0 -- -- 40
2019-05-31 10:00:00 22.7 5 Sudeste 11 Este 0 -- -- 36
2019-05-31 09:00:00 22.4 3 Sudeste 6 Sudeste 0 -- -- 36
2019-05-31 08:00:00 18 0 Calma 5 Norte 0 -- -- 48
2019-05-31 07:00:00 15.5 0 Calma 6 Norte 0 -- -- 50
2019-05-31 06:00:00 17.5 6 Norte 14 Norte 0 -- -- 41
2019-05-31 05:00:00 17.9 8 Norte 14 Nordeste 0 -- -- 42
2019-05-31 04:00:00 17.7 7 Norte 13 Norte 0 -- -- 47
2019-05-31 03:00:00 16.2 2 Noroeste 11 Norte 0 -- -- 52
2019-05-31 02:00:00 14.9 2 Norte 7 Norte 0 -- -- 66
2019-05-31 01:00:00 14.5 4 Norte 8 Norte 0 -- -- 75
2019-05-31 00:00:00 14.7 3 Norte 6 Norte 0 -- -- 78
2019-05-30 23:00:00 15.3 0 Calma 5 Norte 0 -- -- 77
2019-05-30 22:00:00 16.7 0 Calma 10 Sudoeste 0 -- -- 81
2019-05-30 21:00:00 17.8 5 Sudoeste 14 Sudoeste 0 -- -- 67
2019-05-30 20:00:00 18.4 5 Sur 17 Sur 0 -- -- 60
2019-05-30 19:00:00 19.6 8 Sur 15 Sur 0 -- -- 55
2019-05-30 18:00:00 21.5 6 Sur 18 Sur 0 -- -- 51
2019-05-30 17:00:00 21.1 7 Sur 22 Sur 0 -- -- 60
2019-05-30 16:00:00 21.2 8 Sur 24 Sur 0 -- -- 56
2019-05-30 15:00:00 20.3 8 Sur 18 Sur 0 -- -- 59
2019-05-30 14:00:00 21.4 6 Sur 17 Sur 0 -- -- 51
2019-05-30 13:00:00 21 8 Sudeste 20 Sur 0 -- -- 52
2019-05-30 12:00:00 21.4 6 Sur 17 Sur 0 -- -- 48
2019-05-30 11:00:00 20.3 6 Sur 15 Sur 0 -- -- 55
2019-05-30 10:00:00 20.2 4 Sudoeste 13 Sudoeste 0 -- -- 50
2019-05-30 09:00:00 20.1 3 Sudeste 8 Sur 0 -- -- 50
2019-05-30 08:00:00 15.2 3 Nordeste 10 Norte 0 -- -- 63
2019-05-30 07:00:00 12.1 4 Norte 9 Norte 0 -- -- 68
2019-05-30 06:00:00 11.6 3 Norte 6 Nordeste 0 -- -- 65
2019-05-30 05:00:00 12 4 Norte 7 Norte 0 -- -- 66
2019-05-30 04:00:00 12.2 2 Norte 9 Nordeste 0 -- -- 68
2019-05-30 03:00:00 12.8 0 Calma 9 Norte 0 -- -- 73
2019-05-30 02:00:00 13.7 6 Norte 11 Norte 0 -- -- 82
2019-05-30 01:00:00 13.8 2 Norte 7 Norte 0 -- -- 82
2019-05-30 00:00:00 15.9 4 Noroeste 9 Oeste 0 -- -- 72
2019-05-29 23:00:00 16 3 Noroeste 9 Noroeste 0 -- -- 79
2019-05-29 22:00:00 15.6 3 Norte 6 Norte 0 -- -- 78
2019-05-29 21:00:00 16.8 0 Calma 10 Sur 0 -- -- 71
2019-05-29 20:00:00 17.8 5 Sur 13 Sur 0 -- -- 65
2019-05-29 19:00:00 19.7 5 Sur 16 Sur 0 -- -- 56
2019-05-29 18:00:00 20.3 6 Sudoeste 16 Sur 0 -- -- 55
2019-05-29 17:00:00 18.6 7 Sur 20 Sudoeste 0 -- -- 61
2019-05-29 16:00:00 19.9 11 Sur 18 Sur 0 -- -- 58
2019-05-29 15:00:00 21.1 9 Sur 24 Sur 0 -- -- 52
2019-05-29 14:00:00 20.1 13 Sudoeste 23 Sudoeste 0 -- -- 50
2019-05-29 13:00:00 20.5 8 Sur 24 Sur 0 -- -- 49
2019-05-29 12:00:00 20 7 Sur 21 Sur 0 -- -- 50
2019-05-29 11:00:00 20.9 8 Sur 18 Sur 0 -- -- 42
2019-05-29 10:00:00 19.8 6 Sur 13 Sudeste 0 -- -- 51
2019-05-29 09:00:00 19 3 Sudeste 9 Sudeste 0 -- -- 55
2019-05-29 08:00:00 15.2 0 Calma 8 Sudeste 0 -- -- 74
2019-05-29 07:00:00 13.5 4 Norte 8 Noroeste 0 -- -- 82
2019-05-29 06:00:00 13.3 3 Norte 8 Norte 0 -- -- 83
2019-05-29 05:00:00 13.8 3 Norte 10 Norte 0 -- -- 81
2019-05-29 04:00:00 14.1 6 Norte 10 Noroeste 0 -- -- 79
2019-05-29 03:00:00 14.4 2 Norte 5 Noroeste 0 -- -- 82
2019-05-29 02:00:00 14.7 0 Calma -- -- 0 -- -- 80
2019-05-29 01:00:00 15.6 0 Calma 6 Norte 0 -- -- 73
2019-05-29 00:00:00 16.2 4 Norte 6 Noroeste 0 -- -- 63
2019-05-28 23:00:00 16.7 2 Norte 9 Noroeste 0 -- -- 60
2019-05-28 22:00:00 16.9 5 Noroeste 11 Norte 0 -- -- 60
2019-05-28 21:00:00 16.8 4 Norte 12 Norte 0 -- -- 60
2019-05-28 20:00:00 17 5 Norte 11 Norte 0 -- -- 58
2019-05-28 19:00:00 17.4 3 Sur 8 Sudeste 0 -- -- 57
2019-05-28 18:00:00 17.3 3 Sur 8 Sur 0 -- -- 57
2019-05-28 17:00:00 17.5 2 Sur 14 Sur 0 -- -- 56
2019-05-28 16:00:00 18.4 8 Sudeste 18 Sudeste 0 -- -- 54
2019-05-28 15:00:00 20.9 7 Sudeste 17 Sudeste 0 -- -- 49
2019-05-28 14:00:00 21.2 6 Sudeste 15 Sudeste 0 -- -- 45
2019-05-28 13:00:00 18.7 5 Sur 12 Sudeste 0 -- -- 54
2019-05-28 12:00:00 19.4 3 Sudeste 15 Sudeste 0 -- -- 47
2019-05-28 11:00:00 18.9 5 Sudeste 16 Sudeste 0 -- -- 54
2019-05-28 10:00:00 18.8 3 Sudeste 14 Sur 0 -- -- 65
2019-05-28 09:00:00 19.4 2 Sudeste 9 Sudeste 0 -- -- 62
2019-05-28 08:00:00 16.9 0 Calma 10 Norte 0 -- -- 64
2019-05-28 07:00:00 14.7 4 Norte 8 Norte 0 -- -- 71
2019-05-28 06:00:00 14.5 3 Norte 5 Norte 0 -- -- 73
2019-05-28 05:00:00 14.9 0 Calma 5 Norte 0 -- -- 69
2019-05-28 04:00:00 15.4 4 Norte 12 Norte 0 -- -- 64
2019-05-28 03:00:00 14.7 3 Norte 7 Norte 0 -- -- 68
2019-05-28 02:00:00 16 0 Calma 6 Noroeste 0 -- -- 67
2019-05-28 01:00:00 16.6 5 Noroeste 8 Norte 0 -- -- 70
2019-05-28 00:00:00 16.2 2 Norte 6 Noroeste 0 -- -- 85
2019-05-27 23:00:00 16.3 0 Calma 5 Este 0 -- -- 85
2019-05-27 22:00:00 16.9 2 Este 9 Sudeste 0 -- -- 84
2019-05-27 21:00:00 17.8 3 Sudeste 8 Sur 0 -- -- 78
2019-05-27 20:00:00 18.4 2 Sudeste 9 Sur 0 -- -- 64
2019-05-27 19:00:00 19 5 Sur 12 Sudeste 0 -- -- 55
2019-05-27 18:00:00 21.9 5 Sur 21 Sudoeste 0 -- -- 44
2019-05-27 17:00:00 21.3 8 Sur 19 Sur 0 -- -- 52
2019-05-27 16:00:00 21.2 8 Sur 20 Sur 0 -- -- 51
2019-05-27 15:00:00 21.9 8 Sur 18 Sur 0 -- -- 57
2019-05-27 14:00:00 20.8 8 Sudeste 18 Sudeste 0 -- -- 47
2019-05-27 13:00:00 23 7 Sur 19 Sur 0 -- -- 38
2019-05-27 12:00:00 23.9 6 Sur 14 Sur 0 -- -- 36
2019-05-27 11:00:00 22.7 6 Sur 14 Sudeste 0 -- -- 38
2019-05-27 10:00:00 22.7 5 Sur 13 Sudoeste 0 -- -- 38
2019-05-27 09:00:00 21.3 4 Sur 10 Sudoeste 0 -- -- 41
2019-05-27 08:00:00 16.3 3 Norte 9 Norte 0 -- -- 61
2019-05-27 07:00:00 14 3 Norte 11 Norte 0 -- -- 70
2019-05-27 06:00:00 13.4 4 Norte 9 Norte 0 -- -- 77
2019-05-27 05:00:00 13.6 0 Calma 5 Oeste 0 -- -- 75
2019-05-27 04:00:00 15.2 2 Nordeste 8 Norte 0 -- -- 64
2019-05-27 03:00:00 15.9 2 Nordeste 13 Norte 0 -- -- 57
2019-05-27 02:00:00 17.6 8 Noroeste 17 Noroeste 0 -- -- 51
2019-05-27 01:00:00 17.9 9 Norte 18 Oeste 0 -- -- 53
2019-05-27 00:00:00 17.6 10 Norte 16 Norte 0 -- -- 59
2019-05-26 23:00:00 16.7 2 Sudoeste 14 Sur 0 -- -- 63
2019-05-26 22:00:00 16.8 3 Norte 9 Norte 0 -- -- 62
2019-05-26 21:00:00 19.3 3 Noroeste 10 Sudoeste 0 -- -- 51
2019-05-26 20:00:00 21.2 4 Sudoeste 15 Sudoeste 0 -- -- 43
2019-05-26 19:00:00 22.2 9 Sudoeste 22 Sur 0 -- -- 41
2019-05-26 18:00:00 23 7 Sudoeste 24 Sur 0 -- -- 41
2019-05-26 17:00:00 24.7 7 Sudoeste 29 Sudoeste 0 -- -- 38
2019-05-26 16:00:00 23.5 8 Sudoeste 19 Oeste 0.3 -- -- 49
2019-05-26 15:00:00 18.9 10 Sudoeste 18 Oeste 0 -- -- 63
2019-05-26 14:00:00 19.7 3 Sudoeste 13 Sudeste 0.6 -- -- 76
2019-05-26 13:00:00 21.8 4 Sur 12 Sudeste 0 -- -- 47
2019-05-26 12:00:00 21.9 4 Sudoeste 9 Sudeste 0 -- -- 47
2019-05-26 11:00:00 21.5 0 Calma 6 Sur 0 -- -- 49
2019-05-26 10:00:00 19.1 2 Sur 8 Sudeste 0 -- -- 55
2019-05-26 09:00:00 18.5 0 Calma 10 Norte 0 -- -- 60
2019-05-26 08:00:00 17.6 5 Norte 12 Norte 0 -- -- 59
2019-05-26 07:00:00 16 5 Norte 10 Norte 0 -- -- 65
2019-05-26 06:00:00 15.5 4 Norte 9 Nordeste 0 -- -- 68
2019-05-26 05:00:00 15.1 6 Norte 11 Norte 0 -- -- 71
2019-05-26 04:00:00 14.6 5 Norte 10 Norte 0 -- -- 75
2019-05-26 03:00:00 14.9 6 Norte 14 Norte 0 -- -- 75
2019-05-26 02:00:00 15.6 5 Norte 13 Norte 0 -- -- 76
2019-05-26 01:00:00 15.8 4 Norte 11 Norte 0 -- -- 77
2019-05-26 00:00:00 15.6 4 Norte 8 Norte 0 -- -- 75